Time;durP1;ratioP1;P1;durP2;ratioP2;P2;SDS_P1;SDS_P2;PMS_P1;PMS_P2;Temp;Humidity;BMP_temperature;BMP_pressure;BME280_temperature;BME280_humidity;BME280_pressure;Samples;Min_cycle;Max_cycle;Signal;HPM_P1;HPM_P2
2023/04/28 00:01:16;;;;;;;10.65;3.88;;;12.60;99.90;;;;;;5013640;28;20018;-46
2023/04/28 00:03:42;;;;;;;6.00;3.72;;;12.60;99.90;;;;;;5053551;22;20077;-51
2023/04/28 00:06:10;;;;;;;8.68;3.97;;;12.60;99.90;;;;;;5036121;28;20071;-46
2023/04/28 00:08:36;;;;;;;4.93;3.55;;;12.60;99.90;;;;;;5036314;28;20029;-46
2023/04/28 00:11:01;;;;;;;11.50;3.53;;;12.60;99.90;;;;;;5036406;28;20033;-46
2023/04/28 00:13:27;;;;;;;7.00;3.58;;;12.60;99.90;;;;;;5036269;28;20135;-51
2023/04/28 00:15:53;;;;;;;16.77;4.55;;;12.60;99.90;;;;;;5036083;28;20025;-44
2023/04/28 00:18:19;;;;;;;9.90;3.72;;;12.60;99.90;;;;;;5036266;28;20115;-46
2023/04/28 00:20:45;;;;;;;9.05;3.80;;;12.60;99.90;;;;;;5036000;28;20029;-48
2023/04/28 00:23:10;;;;;;;5.45;3.78;;;12.60;99.90;;;;;;5019483;28;20036;-44
2023/04/28 00:25:36;;;;;;;6.40;3.80;;;12.50;99.90;;;;;;5019505;28;20021;-49
2023/04/28 00:28:01;;;;;;;8.82;3.13;;;12.40;99.90;;;;;;5053983;28;20032;-46
2023/04/28 00:30:29;;;;;;;6.80;3.53;;;12.40;99.90;;;;;;5036095;28;20031;-46
2023/04/28 00:32:55;;;;;;;7.22;4.00;;;12.30;99.90;;;;;;5035894;28;20489;-51
2023/04/28 00:35:20;;;;;;;7.95;3.67;;;12.30;99.90;;;;;;5035413;28;20079;-48
2023/04/28 00:37:46;;;;;;;7.43;3.90;;;12.30;99.90;;;;;;5053784;28;20025;-50
2023/04/28 00:40:12;;;;;;;11.95;4.10;;;12.20;99.90;;;;;;5052818;28;20171;-45
2023/04/28 00:42:37;;;;;;;9.65;4.63;;;12.30;99.90;;;;;;5053069;28;20021;-48
2023/04/28 00:45:05;;;;;;;6.57;3.80;;;12.20;99.90;;;;;;5035525;28;20082;-47
2023/04/28 00:47:36;;;;;;;7.82;3.70;;;12.10;99.90;;;;;;5019577;28;20098;-49
2023/04/28 00:50:03;;;;;;;5.43;3.40;;;12.20;99.90;;;;;;5053595;28;20032;-48
2023/04/28 00:52:28;;;;;;;5.97;3.90;;;12.20;99.90;;;;;;5035410;28;20112;-45
2023/04/28 00:54:55;;;;;;;7.88;4.18;;;12.20;99.90;;;;;;5035526;28;20048;-49
2023/04/28 00:57:21;;;;;;;6.90;4.07;;;12.20;99.90;;;;;;5035516;28;20037;-46
2023/04/28 00:59:47;;;;;;;4.85;3.33;;;12.20;99.90;;;;;;5035256;28;20033;-48
2023/04/28 01:02:17;;;;;;;9.73;4.18;;;12.20;99.90;;;;;;5035039;28;20028;-49
2023/04/28 01:04:44;;;;;;;10.55;4.05;;;12.20;99.90;;;;;;5035443;28;20041;-46
2023/04/28 01:07:10;;;;;;;7.00;3.67;;;12.20;99.90;;;;;;5035307;28;20036;-50
2023/04/28 01:12:57;;;;;;;9.25;4.10;;;12.10;99.90;;;;;;5052127;28;20024;-43
2023/04/28 01:15:23;;;;;;;6.63;3.70;;;12.00;99.90;;;;;;5052816;28;20536;-46
2023/04/28 01:17:49;;;;;;;10.60;3.65;;;12.00;99.90;;;;;;5052961;28;20028;-48
2023/04/28 01:20:14;;;;;;;7.10;4.68;;;12.00;99.90;;;;;;5052872;28;20103;-46
2023/04/28 01:22:40;;;;;;;9.75;3.80;;;12.00;99.90;;;;;;5034909;28;20028;-47
2023/04/28 01:25:06;;;;;;;9.85;5.00;;;12.00;99.90;;;;;;5034844;28;20116;-49
2023/04/28 01:27:31;;;;;;;7.95;4.15;;;12.00;99.90;;;;;;5034882;28;20033;-48
2023/04/28 01:29:57;;;;;;;3.60;3.17;;;11.90;99.90;;;;;;5034776;28;20029;-46
2023/04/28 01:32:23;;;;;;;9.25;3.70;;;11.90;99.90;;;;;;5034743;28;20459;-47
2023/04/28 01:34:48;;;;;;;6.47;4.50;;;11.90;99.90;;;;;;5034761;28;20025;-46
2023/04/28 01:37:14;;;;;;;5.65;3.65;;;11.80;99.90;;;;;;5034731;28;20021;-46
2023/04/28 01:39:39;;;;;;;4.95;3.50;;;11.80;99.90;;;;;;5034641;28;20037;-47
2023/04/28 01:42:05;;;;;;;8.50;4.18;;;11.70;99.90;;;;;;5034771;28;20025;-49
2023/04/28 01:44:30;;;;;;;7.97;3.80;;;11.70;99.90;;;;;;5052203;28;20398;-51
2023/04/28 01:46:56;;;;;;;6.07;3.60;;;11.70;99.90;;;;;;5052487;28;20115;-45
2023/04/28 01:49:22;;;;;;;6.22;4.45;;;11.60;99.90;;;;;;5034513;28;20071;-46
2023/04/28 01:51:48;;;;;;;5.68;3.58;;;11.60;99.90;;;;;;5034113;28;20036;-45
2023/04/28 01:54:13;;;;;;;5.00;3.22;;;11.60;99.90;;;;;;5052344;28;20025;-46
2023/04/28 01:56:39;;;;;;;7.10;3.40;;;11.60;99.90;;;;;;5034254;28;20473;-47
2023/04/28 01:59:05;;;;;;;7.15;3.85;;;11.60;99.90;;;;;;5034485;28;20078;-46
2023/04/28 02:01:30;;;;;;;4.72;3.38;;;11.60;99.90;;;;;;5034255;28;20504;-48
2023/04/28 02:03:56;;;;;;;5.40;3.47;;;11.50;99.90;;;;;;5034203;28;20056;-47
2023/04/28 02:06:21;;;;;;;6.55;3.50;;;11.60;99.90;;;;;;5034112;28;20064;-47
2023/04/28 02:08:47;;;;;;;5.55;3.53;;;11.70;99.90;;;;;;5034727;28;20025;-46
2023/04/28 02:11:12;;;;;;;7.60;4.38;;;11.70;99.90;;;;;;5034221;28;20029;-50
2023/04/28 02:13:38;;;;;;;5.10;3.55;;;11.70;99.90;;;;;;5017696;28;20523;-52
2023/04/28 02:16:04;;;;;;;6.22;3.75;;;11.60;99.90;;;;;;5034027;28;20029;-50
2023/04/28 02:18:30;;;;;;;7.80;4.03;;;11.70;99.90;;;;;;5034092;28;20029;-47
2023/04/28 02:20:55;;;;;;;4.72;3.83;;;11.70;99.90;;;;;;5033762;28;20053;-47
2023/04/28 02:23:21;;;;;;;8.63;3.90;;;11.70;99.90;;;;;;5033908;28;20488;-48
2023/04/28 02:25:46;;;;;;;4.25;3.83;;;11.60;99.90;;;;;;5033842;28;20396;-48
2023/04/28 02:28:12;;;;;;;6.80;4.30;;;11.60;99.90;;;;;;5034059;28;20166;-46
2023/04/28 02:30:38;;;;;;;4.78;4.28;;;11.60;99.90;;;;;;5033798;28;20032;-49
2023/04/28 02:33:04;;;;;;;10.25;4.20;;;11.60;99.90;;;;;;5033831;28;20435;-48
2023/04/28 02:35:29;;;;;;;5.45;4.00;;;11.50;99.90;;;;;;5033593;28;20474;-50
2023/04/28 02:37:55;;;;;;;8.00;4.25;;;11.60;99.90;;;;;;5033817;28;20025;-46
2023/04/28 02:40:20;;;;;;;6.45;3.85;;;11.60;99.90;;;;;;5033614;28;20021;-46
2023/04/28 02:42:46;;;;;;;6.38;4.35;;;11.50;99.90;;;;;;5051827;28;20051;-46
2023/04/28 02:45:11;;;;;;;8.57;4.55;;;11.40;99.90;;;;;;5033650;28;20043;-49
2023/04/28 02:47:38;;;;;;;7.78;4.40;;;11.40;99.90;;;;;;5033967;28;20155;-48
2023/04/28 02:50:04;;;;;;;6.65;4.68;;;11.40;99.90;;;;;;5051303;28;20111;-46
2023/04/28 02:52:30;;;;;;;5.45;4.15;;;11.40;99.90;;;;;;5051293;28;20029;-51
2023/04/28 02:54:56;;;;;;;8.00;4.32;;;11.40;99.90;;;;;;5033153;28;20029;-48
2023/04/28 02:57:23;;;;;;;7.88;4.50;;;11.30;99.90;;;;;;5033433;28;20025;-47
2023/04/28 02:59:48;;;;;;;10.43;4.03;;;11.30;99.90;;;;;;5051354;28;20032;-47
2023/04/28 03:02:14;;;;;;;7.30;4.30;;;11.40;99.90;;;;;;5033026;28;20111;-48
2023/04/28 03:04:40;;;;;;;12.23;4.22;;;11.40;99.90;;;;;;5032620;28;20079;-49
2023/04/28 03:07:05;;;;;;;9.80;5.35;;;11.50;99.90;;;;;;5033402;28;20201;-49
2023/04/28 03:09:31;;;;;;;5.95;4.47;;;11.50;99.90;;;;;;5033344;28;20060;-48
2023/04/28 03:11:57;;;;;;;8.30;4.60;;;11.60;99.90;;;;;;5033357;28;20319;-47
2023/04/28 03:14:22;;;;;;;6.97;4.25;;;11.70;99.90;;;;;;5033153;28;20408;-47
2023/04/28 03:16:48;;;;;;;5.57;4.70;;;11.70;99.90;;;;;;5033249;28;20017;-47
2023/04/28 03:19:13;;;;;;;5.78;5.07;;;11.70;99.90;;;;;;5033272;28;20025;-47
2023/04/28 03:21:39;;;;;;;7.68;4.43;;;11.70;99.90;;;;;;5033084;28;20021;-48
2023/04/28 03:24:05;;;;;;;9.25;4.90;;;11.70;99.90;;;;;;5033210;28;20025;-47
2023/04/28 03:26:31;;;;;;;8.85;4.80;;;11.80;99.90;;;;;;5032815;28;20022;-49
2023/04/28 03:28:56;;;;;;;11.05;4.47;;;11.80;99.90;;;;;;5033378;28;20032;-47
2023/04/28 03:31:23;;;;;;;8.18;4.82;;;11.90;99.90;;;;;;5032735;28;20044;-47
2023/04/28 03:33:48;;;;;;;6.70;4.30;;;11.90;99.90;;;;;;5033193;28;20191;-47
2023/04/28 03:36:14;;;;;;;10.40;5.50;;;11.90;99.90;;;;;;5032950;28;20056;-48
2023/04/28 03:38:40;;;;;;;10.30;4.82;;;11.90;99.90;;;;;;5033192;28;20481;-52
2023/04/28 03:41:05;;;;;;;9.20;4.50;;;11.90;99.90;;;;;;5033073;28;20013;-52
2023/04/28 03:43:32;;;;;;;6.72;4.63;;;12.00;99.90;;;;;;5032984;28;20080;-47
2023/04/28 03:45:57;;;;;;;8.15;4.38;;;12.00;99.90;;;;;;5032777;28;20029;-47
2023/04/28 03:48:23;;;;;;;6.78;4.40;;;12.00;99.90;;;;;;5033274;28;20021;-47
2023/04/28 03:50:48;;;;;;;8.63;5.13;;;12.00;99.90;;;;;;5033017;28;20017;-47
2023/04/28 03:53:14;;;;;;;6.20;4.75;;;12.00;99.90;;;;;;5033708;28;20021;-49
2023/04/28 03:55:40;;;;;;;7.93;5.20;;;11.90;99.90;;;;;;5032997;28;20484;-47
2023/04/28 03:58:05;;;;;;;6.43;4.93;;;11.80;99.90;;;;;;5033067;28;20057;-47
2023/04/28 04:00:31;;;;;;;9.23;5.00;;;11.70;99.90;;;;;;5032658;28;20017;-47
2023/04/28 04:02:56;;;;;;;6.45;5.80;;;11.70;99.90;;;;;;5032771;28;20028;-52
2023/04/28 04:05:22;;;;;;;5.75;5.07;;;11.70;99.90;;;;;;5032249;28;20040;-48
2023/04/28 04:07:47;;;;;;;11.80;5.80;;;11.70;99.90;;;;;;5032988;28;20032;-47
2023/04/28 04:10:13;;;;;;;8.50;5.18;;;11.60;99.90;;;;;;5032925;28;20373;-52
2023/04/28 04:12:38;;;;;;;14.73;5.55;;;11.70;99.90;;;;;;5032739;28;20400;-53
2023/04/28 04:15:05;;;;;;;12.65;5.80;;;11.70;99.90;;;;;;5033472;28;20420;-48
2023/04/28 04:17:30;;;;;;;9.27;5.50;;;11.70;99.90;;;;;;5036171;28;20116;-47
2023/04/28 04:19:56;;;;;;;9.05;5.15;;;11.70;99.90;;;;;;5036301;28;20133;-50
2023/04/28 04:22:21;;;;;;;9.55;5.35;;;11.70;99.90;;;;;;5036118;28;20117;-48
2023/04/28 04:24:47;;;;;;;8.15;5.15;;;11.70;99.90;;;;;;5036526;28;20111;-52
2023/04/28 04:27:13;;;;;;;5.97;4.82;;;11.80;99.90;;;;;;5036164;28;20025;-50
2023/04/28 04:29:38;;;;;;;7.40;5.20;;;11.80;99.90;;;;;;5054013;28;20025;-51
2023/04/28 04:32:04;;;;;;;12.18;5.10;;;11.90;99.90;;;;;;5053850;28;20025;-49
2023/04/28 04:34:29;;;;;;;7.07;5.20;;;11.90;99.90;;;;;;5035987;28;20090;-52
2023/04/28 04:36:55;;;;;;;5.88;5.03;;;12.00;99.90;;;;;;5035806;28;20439;-51
2023/04/28 04:39:20;;;;;;;11.32;5.68;;;11.90;99.90;;;;;;5035535;28;20437;-47
2023/04/28 04:41:46;;;;;;;6.55;5.43;;;11.90;99.90;;;;;;5036079;28;20433;-49
2023/04/28 04:44:11;;;;;;;10.18;5.55;;;11.90;99.90;;;;;;5035884;28;20111;-47
2023/04/28 04:46:37;;;;;;;12.30;5.25;;;11.90;99.90;;;;;;5035599;28;20052;-47
2023/04/28 04:49:03;;;;;;;8.77;5.70;;;11.80;99.90;;;;;;5035718;28;20476;-49
2023/04/28 04:51:28;;;;;;;6.28;5.68;;;11.90;99.90;;;;;;5035551;28;20116;-49
2023/04/28 04:53:54;;;;;;;10.40;5.88;;;11.90;99.90;;;;;;5035345;28;20032;-47
2023/04/28 04:56:20;;;;;;;9.45;6.10;;;11.90;99.90;;;;;;5018818;28;20053;-46
2023/04/28 04:58:45;;;;;;;6.15;5.38;;;12.00;99.90;;;;;;5035570;28;20104;-49
2023/04/28 05:01:11;;;;;;;9.00;6.60;;;12.00;99.90;;;;;;5035231;28;20386;-48
2023/04/28 05:03:36;;;;;;;7.38;5.70;;;12.10;99.90;;;;;;5002448;28;20036;-52
2023/04/28 05:06:03;;;;;;;7.32;5.47;;;12.00;99.90;;;;;;5035403;28;20029;-49
2023/04/28 05:08:28;;;;;;;10.13;5.05;;;12.10;99.90;;;;;;5035410;28;20107;-48
2023/04/28 05:10:54;;;;;;;13.30;6.72;;;12.00;99.90;;;;;;5035290;28;20072;-50
2023/04/28 05:13:19;;;;;;;8.35;5.65;;;12.10;99.90;;;;;;5035255;28;20017;-50
2023/04/28 05:15:45;;;;;;;8.80;5.50;;;12.10;99.90;;;;;;5034758;28;20082;-52
2023/04/28 05:18:12;;;;;;;10.30;5.78;;;12.00;99.90;;;;;;5034973;28;20033;-50
2023/04/28 05:20:38;;;;;;;8.48;5.40;;;12.10;99.90;;;;;;5034919;28;20563;-52
2023/04/28 05:23:04;;;;;;;12.25;6.03;;;12.10;99.90;;;;;;5052946;28;20115;-49
2023/04/28 05:25:30;;;;;;;8.82;6.03;;;12.00;99.90;;;;;;5035517;28;20110;-47
2023/04/28 05:27:55;;;;;;;9.38;5.75;;;12.00;99.90;;;;;;5034961;28;20056;-51
2023/04/28 05:30:21;;;;;;;9.35;7.22;;;12.00;99.90;;;;;;5035259;28;20032;-47
2023/04/28 05:32:47;;;;;;;9.63;6.53;;;11.80;99.90;;;;;;5035422;28;20032;-47
2023/04/28 05:35:13;;;;;;;14.20;7.35;;;11.70;99.90;;;;;;5034695;28;20059;-47
2023/04/28 05:37:41;;;;;;;8.73;6.60;;;11.70;99.90;;;;;;5034661;28;20025;-47
2023/04/28 05:40:08;;;;;;;10.73;7.07;;;11.70;99.90;;;;;;5034580;28;20508;-47
2023/04/28 05:42:33;;;;;;;11.18;6.72;;;11.70;99.90;;;;;;5034446;28;20056;-47
2023/04/28 05:44:59;;;;;;;9.90;5.93;;;11.50;99.90;;;;;;5034607;28;20063;-47
2023/04/28 05:47:25;;;;;;;10.82;6.70;;;11.50;99.90;;;;;;5034666;28;20399;-49
2023/04/28 05:49:50;;;;;;;12.15;6.30;;;11.50;99.90;;;;;;5034381;28;20079;-48
2023/04/28 05:52:16;;;;;;;14.45;7.50;;;11.40;99.90;;;;;;5034318;28;20056;-46
2023/04/28 05:54:41;;;;;;;9.30;6.93;;;11.40;99.90;;;;;;5052302;28;20060;-47
2023/04/28 05:57:07;;;;;;;9.82;7.28;;;11.40;99.90;;;;;;5034249;28;20067;-48
2023/04/28 05:59:33;;;;;;;13.52;7.13;;;11.40;99.90;;;;;;5034107;28;20494;-51
2023/04/28 06:01:58;;;;;;;8.35;6.90;;;11.40;99.90;;;;;;5051537;28;20025;-47
2023/04/28 06:04:24;;;;;;;9.02;7.70;;;11.20;99.90;;;;;;5044433;22;20099;-46
2023/04/28 06:06:50;;;;;;;10.73;8.00;;;11.00;99.90;;;;;;5030504;28;20030;-45
2023/04/28 06:09:15;;;;;;;9.05;7.50;;;10.80;99.90;;;;;;5030834;28;20044;-47
2023/04/28 06:11:41;;;;;;;12.23;10.20;;;10.70;99.90;;;;;;5030785;28;20215;-46
2023/04/28 06:14:06;;;;;;;16.15;9.55;;;10.60;99.90;;;;;;5032032;28;20406;-45
2023/04/28 06:16:32;;;;;;;13.98;11.68;;;10.60;99.90;;;;;;5030383;28;20032;-45
2023/04/28 06:18:57;;;;;;;13.90;10.90;;;10.70;99.90;;;;;;5030821;28;20026;-46
2023/04/28 06:21:24;;;;;;;14.13;11.02;;;10.60;99.90;;;;;;5030525;28;20022;-47
2023/04/28 06:23:49;;;;;;;9.95;8.88;;;10.60;99.90;;;;;;5030465;28;20505;-46
2023/04/28 06:26:15;;;;;;;10.27;8.40;;;10.50;99.90;;;;;;5030499;28;20079;-46
2023/04/28 06:28:41;;;;;;;12.40;8.13;;;10.60;99.90;;;;;;5030291;28;20072;-45
2023/04/28 06:31:06;;;;;;;11.20;8.05;;;10.60;99.90;;;;;;5030521;28;20022;-45
2023/04/28 06:33:32;;;;;;;14.45;7.60;;;10.70;99.90;;;;;;5030631;28;20040;-48
2023/04/28 06:35:57;;;;;;;10.23;7.70;;;10.70;99.90;;;;;;5030440;28;20397;-46
2023/04/28 06:38:23;;;;;;;10.70;8.32;;;10.70;99.90;;;;;;5030229;28;20580;-47
2023/04/28 06:40:48;;;;;;;10.95;8.52;;;10.80;99.90;;;;;;5030273;28;20516;-46
2023/04/28 06:43:14;;;;;;;13.73;7.63;;;10.90;99.90;;;;;;5030257;28;20028;-48
2023/04/28 06:45:40;;;;;;;8.95;7.68;;;10.90;99.90;;;;;;5013741;28;20489;-48
2023/04/28 06:48:07;;;;;;;10.23;7.85;;;10.80;99.90;;;;;;5030395;28;20030;-50
2023/04/28 06:50:32;;;;;;;11.80;7.88;;;11.00;99.90;;;;;;5030177;28;20393;-48
2023/04/28 06:52:58;;;;;;;11.63;8.35;;;10.90;99.90;;;;;;5031366;28;20021;-47
2023/04/28 06:55:24;;;;;;;17.70;8.65;;;10.90;99.90;;;;;;5029998;28;20025;-49
2023/04/28 06:57:50;;;;;;;14.13;8.32;;;10.80;99.90;;;;;;5030280;28;20064;-47
2023/04/28 07:00:16;;;;;;;15.52;8.85;;;10.70;99.90;;;;;;5029689;28;20025;-46
2023/04/28 07:02:41;;;;;;;15.18;11.30;;;10.70;99.90;;;;;;5030024;28;20501;-52
2023/04/28 07:05:07;;;;;;;14.80;8.80;;;10.80;99.90;;;;;;5029774;28;20029;-51
2023/04/28 07:07:33;;;;;;;10.82;8.80;;;10.90;99.90;;;;;;5030150;28;20116;-48
2023/04/28 07:09:59;;;;;;;11.40;9.13;;;11.00;99.90;;;;;;5029865;28;20037;-44
2023/04/28 07:12:26;;;;;;;12.55;9.27;;;11.00;99.90;;;;;;5029833;28;20021;-44
2023/04/28 07:14:51;;;;;;;16.75;10.18;;;10.90;99.90;;;;;;5029697;28;20037;-45
2023/04/28 07:17:17;;;;;;;12.73;10.10;;;11.00;99.90;;;;;;5029976;28;20025;-45
2023/04/28 07:19:42;;;;;;;14.05;9.75;;;11.00;99.90;;;;;;5029877;28;20028;-47
2023/04/28 07:22:08;;;;;;;15.60;10.48;;;11.00;99.90;;;;;;5029944;28;20026;-48
2023/04/28 07:24:34;;;;;;;13.43;10.27;;;11.10;99.90;;;;;;5029757;28;20510;-45
2023/04/28 07:27:00;;;;;;;13.50;10.43;;;11.10;99.90;;;;;;5029656;28;20052;-46
2023/04/28 07:29:28;;;;;;;15.02;9.50;;;11.20;99.90;;;;;;5029763;28;20032;-48
2023/04/28 07:31:53;;;;;;;12.10;9.82;;;11.30;99.90;;;;;;5029873;28;20029;-46
2023/04/28 07:34:19;;;;;;;17.20;10.02;;;11.30;99.90;;;;;;5029497;28;20504;-48
2023/04/28 07:36:45;;;;;;;13.60;9.13;;;11.50;99.90;;;;;;5029524;28;20095;-46
2023/04/28 07:39:10;;;;;;;15.57;9.98;;;11.50;99.90;;;;;;5029665;28;20017;-46
2023/04/28 07:41:37;;;;;;;18.38;9.88;;;11.50;99.90;;;;;;5029350;28;20064;-44
2023/04/28 07:44:09;;;;;;;20.52;10.98;;;11.50;99.90;;;;;;5029438;28;20489;-47
2023/04/28 07:46:35;;;;;;;13.55;10.55;;;11.60;99.90;;;;;;5029641;28;20404;-52
2023/04/28 07:49:01;;;;;;;17.17;10.43;;;11.50;99.90;;;;;;5029756;28;20405;-47
2023/04/28 07:51:27;;;;;;;18.10;11.23;;;11.60;99.90;;;;;;5032369;28;20021;-47
2023/04/28 07:53:53;;;;;;;12.93;9.95;;;11.70;99.90;;;;;;5033189;28;20031;-47
2023/04/28 07:56:18;;;;;;;18.45;11.73;;;11.80;99.90;;;;;;5033055;28;20032;-44
2023/04/28 07:58:44;;;;;;;13.63;11.63;;;11.90;99.90;;;;;;5033273;28;20017;-46
2023/04/28 08:01:10;;;;;;;15.73;12.05;;;12.00;99.90;;;;;;5032884;28;20035;-46
2023/04/28 08:03:36;;;;;;;16.02;10.90;;;12.00;99.90;;;;;;5033195;28;20447;-46
2023/04/28 08:06:02;;;;;;;15.15;11.55;;;12.10;99.90;;;;;;5033003;28;20022;-45
2023/04/28 08:08:28;;;;;;;17.17;11.55;;;12.10;99.90;;;;;;5033157;28;20504;-48
2023/04/28 08:10:54;;;;;;;14.50;11.02;;;12.10;99.90;;;;;;5033005;28;20520;-46
2023/04/28 08:13:19;;;;;;;15.10;12.23;;;12.10;99.90;;;;;;5034192;28;20041;-46
2023/04/28 08:15:46;;;;;;;15.55;11.80;;;12.20;99.90;;;;;;5032888;28;20084;-46
2023/04/28 08:18:12;;;;;;;17.05;12.43;;;12.20;99.90;;;;;;5033179;28;20036;-48
2023/04/28 08:20:37;;;;;;;15.43;11.50;;;12.20;99.90;;;;;;5032701;28;20021;-46
2023/04/28 08:23:03;;;;;;;21.42;11.88;;;12.30;99.90;;;;;;5016414;28;20109;-45
2023/04/28 08:25:29;;;;;;;14.63;11.77;;;12.40;99.90;;;;;;5034283;28;20057;-47
2023/04/28 08:27:55;;;;;;;16.05;12.45;;;12.40;99.90;;;;;;5034086;28;20525;-46
2023/04/28 08:30:21;;;;;;;13.63;11.88;;;12.50;99.90;;;;;;5032742;28;20040;-46
2023/04/28 08:32:47;;;;;;;19.23;12.75;;;12.60;99.90;;;;;;5032709;28;20037;-46
2023/04/28 08:35:14;;;;;;;15.90;12.13;;;12.80;99.90;;;;;;5032653;28;20022;-51
2023/04/28 08:37:40;;;;;;;15.82;12.60;;;12.80;99.90;;;;;;5029330;28;20611;-45
2023/04/28 08:40:08;;;;;;;15.00;12.32;;;13.00;99.90;;;;;;5032885;28;20163;-48
2023/04/28 08:42:35;;;;;;;15.52;12.38;;;13.10;99.90;;;;;;5016331;28;20034;-48
2023/04/28 08:45:03;;;;;;;13.73;12.18;;;13.10;99.90;;;;;;5033617;28;20383;-48
2023/04/28 08:47:37;;;;;;;15.52;12.88;;;13.10;99.90;;;;;;5032621;28;20440;-48
2023/04/28 08:50:11;;;;;;;14.43;12.48;;;13.20;99.90;;;;;;5032379;28;20026;-48
2023/04/28 08:52:37;;;;;;;18.40;12.50;;;13.20;99.90;;;;;;5030808;28;20032;-48
2023/04/28 08:55:11;;;;;;;17.75;13.20;;;13.20;99.90;;;;;;5032231;28;20022;-47
2023/04/28 08:57:44;;;;;;;19.88;14.00;;;13.20;99.90;;;;;;5022421;28;20022;-45
2023/04/28 09:00:11;;;;;;;19.83;13.93;;;13.20;99.90;;;;;;5012739;28;20029;-49
2023/04/28 09:02:37;;;;;;;18.52;14.80;;;13.20;99.90;;;;;;5048449;28;20021;-46
2023/04/28 09:05:10;;;;;;;17.70;13.48;;;13.30;99.90;;;;;;5053688;28;20039;-48
2023/04/28 09:07:35;;;;;;;23.10;14.25;;;13.40;99.90;;;;;;5052585;28;20025;-47
2023/04/28 09:10:21;;;;;;;17.52;13.73;;;13.60;99.90;;;;;;5040178;28;20116;-48
2023/04/28 09:12:48;;;;;;;18.35;12.90;;;13.80;99.90;;;;;;5051174;28;20032;-46
2023/04/28 09:15:35;;;;;;;20.67;15.50;;;13.90;99.90;;;;;;5051981;28;20029;-47
2023/04/28 09:18:03;;;;;;;23.00;14.43;;;14.10;99.90;;;;;;5052081;28;20025;-48
2023/04/28 09:20:30;;;;;;;19.92;14.90;;;14.10;99.90;;;;;;5052085;28;20039;-48
2023/04/28 09:23:12;;;;;;;21.63;16.73;;;14.10;99.90;;;;;;5051925;28;20041;-49
2023/04/28 09:25:38;;;;;;;24.15;18.40;;;14.10;99.90;;;;;;5051813;28;20296;-49
2023/04/28 09:28:22;;;;;;;22.48;17.75;;;14.00;99.90;;;;;;5051671;28;20040;-44
2023/04/28 09:30:48;;;;;;;26.42;19.60;;;13.90;99.90;;;;;;5047440;28;20040;-50
2023/04/28 09:33:14;;;;;;;23.77;18.27;;;13.80;99.90;;;;;;5033068;28;20021;-49
2023/04/28 09:35:41;;;;;;;25.10;17.88;;;13.80;99.90;;;;;;5033439;28;20459;-51
2023/04/28 09:38:07;;;;;;;23.20;18.27;;;13.70;99.90;;;;;;5052697;28;20029;-50
2023/04/28 09:40:46;;;;;;;20.63;17.40;;;13.80;99.90;;;;;;5053021;28;20025;-51
2023/04/28 09:43:23;;;;;;;23.70;18.98;;;13.90;99.90;;;;;;5018853;28;20017;-47
2023/04/28 09:45:48;;;;;;;35.60;28.02;;;14.10;99.90;;;;;;5032258;28;20091;-47
2023/04/28 09:48:14;;;;;;;43.10;31.20;;;14.10;99.90;;;;;;5032939;28;20025;-45
2023/04/28 09:50:40;;;;;;;28.42;21.50;;;14.20;99.90;;;;;;5031549;28;20029;-51
2023/04/28 09:53:10;;;;;;;21.92;15.80;;;14.20;99.90;;;;;;5030827;28;20030;-50
2023/04/28 09:55:42;;;;;;;24.58;16.20;;;14.30;99.90;;;;;;5031464;28;20504;-47
2023/04/28 09:58:08;;;;;;;23.38;18.15;;;14.40;99.90;;;;;;5031412;28;20038;-50
2023/04/28 10:00:36;;;;;;;26.52;18.63;;;14.50;99.90;;;;;;5031408;28;20472;-50
2023/04/28 10:03:02;;;;;;;25.48;18.02;;;14.50;99.90;;;;;;5031502;28;20100;-48
2023/04/28 10:05:27;;;;;;;23.55;18.00;;;14.50;99.90;;;;;;5032091;28;20056;-47
2023/04/28 10:07:54;;;;;;;19.73;17.10;;;14.60;99.90;;;;;;5032684;28;20045;-45
2023/04/28 10:10:21;;;;;;;23.13;18.98;;;14.70;99.90;;;;;;5030289;28;20033;-46
2023/04/28 10:12:47;;;;;;;19.98;16.15;;;14.80;99.90;;;;;;5031693;28;20118;-43
2023/04/28 10:15:12;;;;;;;26.92;17.65;;;14.80;99.90;;;;;;5030577;28;20489;-46
2023/04/28 10:17:38;;;;;;;19.05;14.30;;;14.80;99.90;;;;;;5030815;28;20022;-47
2023/04/28 10:20:05;;;;;;;17.90;15.95;;;14.90;99.90;;;;;;5030351;28;20489;-47
2023/04/28 10:22:36;;;;;;;19.60;15.65;;;15.00;99.90;;;;;;5030595;28;20021;-49
2023/04/28 10:25:21;;;;;;;18.02;16.08;;;15.00;99.90;;;;;;5029777;28;20028;-47
2023/04/28 10:27:47;;;;;;;19.17;16.15;;;15.00;99.90;;;;;;5028053;28;20025;-46
2023/04/28 10:30:23;;;;;;;21.52;17.35;;;15.00;99.90;;;;;;5030561;28;20024;-50
2023/04/28 10:33:08;;;;;;;21.38;15.38;;;15.00;99.90;;;;;;5028941;28;20021;-49
2023/04/28 10:35:35;;;;;;;20.50;15.38;;;14.90;99.90;;;;;;5029610;28;20215;-48
2023/04/28 10:38:12;;;;;;;22.33;16.23;;;14.90;99.90;;;;;;5030268;28;20033;-50
2023/04/28 10:40:45;;;;;;;18.05;14.88;;;15.00;99.90;;;;;;5030209;28;20045;-45
2023/04/28 10:43:24;;;;;;;19.83;14.80;;;15.10;99.90;;;;;;5030157;28;20022;-48
2023/04/28 10:45:53;;;;;;;19.38;16.00;;;15.20;99.90;;;;;;5029895;28;20037;-46
2023/04/28 10:48:19;;;;;;;21.35;17.50;;;15.20;99.90;;;;;;5030192;28;20021;-46
2023/04/28 10:51:06;;;;;;;19.40;15.90;;;15.40;99.90;;;;;;5029926;28;20095;-47
2023/04/28 10:53:44;;;;;;;16.50;14.80;;;15.50;99.90;;;;;;5029836;28;20025;-46
2023/04/28 10:56:11;;;;;;;19.10;16.10;;;15.70;99.90;;;;;;5029937;28;20029;-48
2023/04/28 10:58:41;;;;;;;27.55;17.83;;;15.90;99.90;;;;;;5030061;28;20053;-45
2023/04/28 11:01:25;;;;;;;18.40;15.75;;;15.90;99.90;;;;;;5029964;28;20531;-46
2023/04/28 11:03:59;;;;;;;18.10;15.43;;;15.80;99.90;;;;;;5029942;28;20042;-49
2023/04/28 11:06:31;;;;;;;18.05;15.18;;;15.80;99.90;;;;;;5029894;28;20025;-45
2023/04/28 11:09:02;;;;;;;17.88;16.00;;;15.90;99.90;;;;;;5030161;28;20441;-45
2023/04/28 11:11:37;;;;;;;22.83;18.05;;;16.00;99.90;;;;;;5029930;28;20112;-48
2023/04/28 11:14:19;;;;;;;84.20;59.35;;;15.90;99.90;;;;;;5030077;28;20018;-47
2023/04/28 11:17:00;;;;;;;86.90;58.13;;;15.90;99.90;;;;;;5029937;28;20211;-43
2023/04/28 11:19:27;;;;;;;20.67;16.27;;;15.90;99.90;;;;;;5029944;28;20409;-44
2023/04/28 11:21:55;;;;;;;19.50;16.15;;;15.90;99.90;;;;;;5029868;28;20067;-50
2023/04/28 11:24:24;;;;;;;19.60;16.33;;;16.00;99.90;;;;;;5029812;28;20112;-48
2023/04/28 11:26:50;;;;;;;19.55;16.27;;;15.90;99.90;;;;;;5033668;28;20072;-47
2023/04/28 11:29:15;;;;;;;20.60;17.30;;;15.80;99.90;;;;;;5034190;28;20133;-47
2023/04/28 11:31:50;;;;;;;21.42;17.05;;;15.80;99.90;;;;;;5033792;28;20029;-49
2023/04/28 11:34:19;;;;;;;22.25;16.15;;;15.70;99.90;;;;;;5034934;28;20113;-45
2023/04/28 11:36:44;;;;;;;22.80;16.73;;;15.50;99.90;;;;;;5034651;28;20083;-47
2023/04/28 11:39:11;;;;;;;24.52;18.92;;;15.40;99.90;;;;;;5033719;28;20413;-47
2023/04/28 11:41:39;;;;;;;20.40;18.08;;;15.40;99.90;;;;;;5033784;28;20021;-47
2023/04/28 11:44:16;;;;;;;20.40;17.48;;;15.30;99.90;;;;;;5033626;28;20140;-45
2023/04/28 11:46:52;;;;;;;21.58;17.02;;;15.30;99.90;;;;;;5033143;28;20108;-48
2023/04/28 11:49:18;;;;;;;20.67;17.38;;;15.30;99.90;;;;;;5033442;28;20025;-48
2023/04/28 11:51:46;;;;;;;20.13;18.02;;;15.30;99.90;;;;;;5034788;28;20029;-49
2023/04/28 11:54:13;;;;;;;22.05;18.42;;;15.30;99.90;;;;;;5033397;28;20400;-47
2023/04/28 11:56:40;;;;;;;22.52;18.13;;;15.20;99.90;;;;;;5034399;28;20030;-44
2023/04/28 11:59:08;;;;;;;23.02;18.98;;;15.20;99.90;;;;;;5034592;28;20044;-47
2023/04/28 12:01:50;;;;;;;23.95;19.98;;;15.20;99.90;;;;;;5033214;28;20022;-46
2023/04/28 12:04:36;;;;;;;23.10;18.23;;;15.20;99.90;;;;;;5056240;22;20419;-45
2023/04/28 12:07:10;;;;;;;20.02;17.52;;;15.20;99.90;;;;;;5074115;28;20099;-46
2023/04/28 12:09:38;;;;;;;25.10;18.92;;;15.20;99.90;;;;;;5074172;28;20467;-46
2023/04/28 12:12:06;;;;;;;20.30;17.98;;;15.30;99.90;;;;;;5074319;28;20025;-49
2023/04/28 12:14:52;;;;;;;24.60;19.05;;;15.30;99.90;;;;;;5073901;28;20016;-45
2023/04/28 12:17:27;;;;;;;24.65;19.52;;;15.40;99.90;;;;;;5073974;28;20032;-50
2023/04/28 12:19:56;;;;;;;21.10;18.02;;;15.60;99.90;;;;;;5073409;28;20016;-47
2023/04/28 12:22:23;;;;;;;20.10;17.38;;;15.80;99.90;;;;;;5076906;28;20044;-47
2023/04/28 12:25:09;;;;;;;17.65;15.88;;;16.00;99.90;;;;;;5073993;28;20064;-48
2023/04/28 12:27:38;;;;;;;31.35;26.40;;;16.10;99.90;;;;;;5073684;28;20020;-48
2023/04/28 12:30:23;;;;;;;48.92;35.75;;;16.20;99.90;;;;;;5055176;28;20020;-50
2023/04/28 12:32:49;;;;;;;17.70;14.10;;;16.30;99.90;;;;;;5074036;28;20027;-47
2023/04/28 12:35:15;;;;;;;16.88;14.82;;;16.40;99.90;;;;;;5073456;28;20024;-46
2023/04/28 12:37:43;;;;;;;16.08;12.70;;;16.40;99.90;;;;;;5071424;28;20543;-47
2023/04/28 12:40:10;;;;;;;12.98;11.68;;;16.40;99.90;;;;;;5087465;28;20024;-44